sim
Sign-in with your pilot id or email,
or register
Callsign
Passwort

Schedule Details

Flight Number: OEO3041
Departure: Dortmund Airport (EDLW) at 16:50
Arrival: Munich Airport (EDDM) at 18:05

Weather Information
Getting current METAR information for EDLW 190150Z AUTO 00000KT 9999 // NCD 10/04 Q1021
Getting current METAR information for EDDM 190150Z 04004KT CAVOK 07/05 Q1021 NOSIG

Schedule Frequency

Route Map